sensor_id;sensor_type;location;lat;lon;timestamp;P1;durP1;ratioP1;P2;durP2;ratioP2
2362;SDS011;64265;51.664;7.626;2023-05-07T00:01:44;1.35;;;1.25;;
2362;SDS011;64265;51.664;7.626;2023-05-07T00:04:11;1.10;;;0.98;;
2362;SDS011;64265;51.664;7.626;2023-05-07T00:06:39;2.47;;;1.00;;
2362;SDS011;64265;51.664;7.626;2023-05-07T00:09:06;1.50;;;1.40;;
2362;SDS011;64265;51.664;7.626;2023-05-07T00:11:33;1.55;;;1.00;;
2362;SDS011;64265;51.664;7.626;2023-05-07T00:14:00;1.63;;;1.52;;
2362;SDS011;64265;51.664;7.626;2023-05-07T00:16:26;1.38;;;1.27;;
2362;SDS011;64265;51.664;7.626;2023-05-07T00:18:53;1.63;;;1.10;;
2362;SDS011;64265;51.664;7.626;2023-05-07T00:21:20;1.60;;;1.10;;
2362;SDS011;64265;51.664;7.626;2023-05-07T00:23:48;1.45;;;1.33;;
2362;SDS011;64265;51.664;7.626;2023-05-07T00:26:15;1.20;;;1.10;;
2362;SDS011;64265;51.664;7.626;2023-05-07T00:28:42;1.17;;;0.98;;
2362;SDS011;64265;51.664;7.626;2023-05-07T00:31:09;1.40;;;1.08;;
2362;SDS011;64265;51.664;7.626;2023-05-07T00:33:35;2.45;;;1.17;;
2362;SDS011;64265;51.664;7.626;2023-05-07T00:36:02;1.35;;;1.20;;
2362;SDS011;64265;51.664;7.626;2023-05-07T00:38:29;1.30;;;1.00;;
2362;SDS011;64265;51.664;7.626;2023-05-07T00:40:57;1.30;;;1.20;;
2362;SDS011;64265;51.664;7.626;2023-05-07T00:43:24;2.70;;;1.00;;
2362;SDS011;64265;51.664;7.626;2023-05-07T00:45:50;1.40;;;1.08;;
2362;SDS011;64265;51.664;7.626;2023-05-07T00:48:17;1.10;;;1.00;;
2362;SDS011;64265;51.664;7.626;2023-05-07T00:50:44;1.55;;;1.23;;
2362;SDS011;64265;51.664;7.626;2023-05-07T00:53:12;1.35;;;1.10;;
2362;SDS011;64265;51.664;7.626;2023-05-07T00:55:39;1.70;;;1.38;;
2362;SDS011;64265;51.664;7.626;2023-05-07T00:58:07;1.20;;;1.05;;
2362;SDS011;64265;51.664;7.626;2023-05-07T01:00:34;1.23;;;1.13;;
2362;SDS011;64265;51.664;7.626;2023-05-07T01:03:02;1.85;;;1.30;;
2362;SDS011;64265;51.664;7.626;2023-05-07T01:05:29;1.30;;;1.05;;
2362;SDS011;64265;51.664;7.626;2023-05-07T01:07:56;1.35;;;1.25;;
2362;SDS011;64265;51.664;7.626;2023-05-07T01:10:23;1.58;;;1.10;;
2362;SDS011;64265;51.664;7.626;2023-05-07T01:12:50;1.10;;;1.00;;
2362;SDS011;64265;51.664;7.626;2023-05-07T01:15:21;1.20;;;0.90;;
2362;SDS011;64265;51.664;7.626;2023-05-07T01:17:47;1.30;;;1.20;;
2362;SDS011;64265;51.664;7.626;2023-05-07T01:20:14;1.13;;;1.02;;
2362;SDS011;64265;51.664;7.626;2023-05-07T01:22:42;1.10;;;1.00;;
2362;SDS011;64265;51.664;7.626;2023-05-07T01:25:09;1.25;;;1.05;;
2362;SDS011;64265;51.664;7.626;2023-05-07T01:27:36;2.08;;;1.10;;
2362;SDS011;64265;51.664;7.626;2023-05-07T01:30:03;2.38;;;1.08;;
2362;SDS011;64265;51.664;7.626;2023-05-07T01:32:32;1.75;;;0.90;;
2362;SDS011;64265;51.664;7.626;2023-05-07T01:35:02;1.50;;;0.95;;
2362;SDS011;64265;51.664;7.626;2023-05-07T01:37:31;1.08;;;0.90;;
2362;SDS011;64265;51.664;7.626;2023-05-07T01:40:00;1.50;;;1.00;;
2362;SDS011;64265;51.664;7.626;2023-05-07T01:42:28;1.17;;;1.08;;
2362;SDS011;64265;51.664;7.626;2023-05-07T01:44:55;1.77;;;1.10;;
2362;SDS011;64265;51.664;7.626;2023-05-07T01:47:22;1.10;;;1.00;;
2362;SDS011;64265;51.664;7.626;2023-05-07T01:49:50;1.20;;;1.10;;
2362;SDS011;64265;51.664;7.626;2023-05-07T01:52:16;1.40;;;0.80;;
2362;SDS011;64265;51.664;7.626;2023-05-07T01:54:43;1.15;;;0.98;;
2362;SDS011;64265;51.664;7.626;2023-05-07T01:57:11;1.40;;;1.10;;
2362;SDS011;64265;51.664;7.626;2023-05-07T01:59:38;1.58;;;1.10;;
2362;SDS011;64265;51.664;7.626;2023-05-07T02:02:04;1.25;;;1.10;;
2362;SDS011;64265;51.664;7.626;2023-05-07T02:04:31;1.27;;;0.80;;
2362;SDS011;64265;51.664;7.626;2023-05-07T02:06:58;1.20;;;1.10;;
2362;SDS011;64265;51.664;7.626;2023-05-07T02:09:24;1.60;;;1.05;;
2362;SDS011;64265;51.664;7.626;2023-05-07T02:11:51;1.40;;;1.10;;
2362;SDS011;64265;51.664;7.626;2023-05-07T02:14:19;1.30;;;1.00;;
2362;SDS011;64265;51.664;7.626;2023-05-07T02:16:46;1.00;;;0.90;;
2362;SDS011;64265;51.664;7.626;2023-05-07T02:19:12;1.65;;;1.02;;
2362;SDS011;64265;51.664;7.626;2023-05-07T02:21:39;1.30;;;1.20;;
2362;SDS011;64265;51.664;7.626;2023-05-07T02:24:06;1.10;;;0.80;;
2362;SDS011;64265;51.664;7.626;2023-05-07T02:26:32;1.10;;;1.00;;
2362;SDS011;64265;51.664;7.626;2023-05-07T02:28:59;1.35;;;1.15;;
2362;SDS011;64265;51.664;7.626;2023-05-07T02:31:27;1.10;;;1.00;;
2362;SDS011;64265;51.664;7.626;2023-05-07T02:33:54;1.00;;;0.82;;
2362;SDS011;64265;51.664;7.626;2023-05-07T02:36:21;1.30;;;1.20;;
2362;SDS011;64265;51.664;7.626;2023-05-07T02:38:47;1.30;;;1.10;;
2362;SDS011;64265;51.664;7.626;2023-05-07T02:41:14;1.35;;;1.25;;
2362;SDS011;64265;51.664;7.626;2023-05-07T02:43:41;1.17;;;1.00;;
2362;SDS011;64265;51.664;7.626;2023-05-07T02:46:08;1.23;;;1.13;;
2362;SDS011;64265;51.664;7.626;2023-05-07T02:48:36;1.15;;;0.90;;
2362;SDS011;64265;51.664;7.626;2023-05-07T02:51:03;0.90;;;0.80;;
2362;SDS011;64265;51.664;7.626;2023-05-07T02:53:31;0.90;;;0.70;;
2362;SDS011;64265;51.664;7.626;2023-05-07T02:55:58;2.35;;;0.93;;
2362;SDS011;64265;51.664;7.626;2023-05-07T02:58:26;1.00;;;0.80;;
2362;SDS011;64265;51.664;7.626;2023-05-07T03:00:53;1.30;;;1.10;;
2362;SDS011;64265;51.664;7.626;2023-05-07T03:03:20;1.60;;;1.50;;
2362;SDS011;64265;51.664;7.626;2023-05-07T03:05:48;1.55;;;1.00;;
2362;SDS011;64265;51.664;7.626;2023-05-07T03:08:15;1.40;;;1.02;;
2362;SDS011;64265;51.664;7.626;2023-05-07T03:10:41;1.33;;;1.00;;
2362;SDS011;64265;51.664;7.626;2023-05-07T03:13:08;1.00;;;0.90;;
2362;SDS011;64265;51.664;7.626;2023-05-07T03:15:35;1.42;;;1.00;;
2362;SDS011;64265;51.664;7.626;2023-05-07T03:18:02;1.42;;;1.33;;
2362;SDS011;64265;51.664;7.626;2023-05-07T03:20:29;1.67;;;1.30;;
2362;SDS011;64265;51.664;7.626;2023-05-07T03:22:57;1.00;;;0.90;;
2362;SDS011;64265;51.664;7.626;2023-05-07T03:25:24;1.30;;;1.20;;
2362;SDS011;64265;51.664;7.626;2023-05-07T03:27:50;0.98;;;0.80;;
2362;SDS011;64265;51.664;7.626;2023-05-07T03:30:20;1.40;;;0.98;;
2362;SDS011;64265;51.664;7.626;2023-05-07T03:32:47;1.20;;;1.00;;
2362;SDS011;64265;51.664;7.626;2023-05-07T03:35:14;0.98;;;0.88;;
2362;SDS011;64265;51.664;7.626;2023-05-07T03:37:40;1.10;;;0.98;;
2362;SDS011;64265;51.664;7.626;2023-05-07T03:40:09;1.45;;;1.20;;
2362;SDS011;64265;51.664;7.626;2023-05-07T03:42:37;1.20;;;0.93;;
2362;SDS011;64265;51.664;7.626;2023-05-07T03:45:04;1.00;;;0.90;;
2362;SDS011;64265;51.664;7.626;2023-05-07T03:47:31;1.30;;;1.00;;
2362;SDS011;64265;51.664;7.626;2023-05-07T03:49:58;1.40;;;1.10;;
2362;SDS011;64265;51.664;7.626;2023-05-07T03:52:24;1.33;;;1.23;;
2362;SDS011;64265;51.664;7.626;2023-05-07T03:54:51;1.10;;;0.98;;
2362;SDS011;64265;51.664;7.626;2023-05-07T03:57:20;1.25;;;1.02;;
2362;SDS011;64265;51.664;7.626;2023-05-07T03:59:47;1.08;;;0.88;;
2362;SDS011;64265;51.664;7.626;2023-05-07T04:02:13;1.08;;;0.90;;
2362;SDS011;64265;51.664;7.626;2023-05-07T04:04:40;1.40;;;1.00;;
2362;SDS011;64265;51.664;7.626;2023-05-07T04:07:07;1.08;;;0.95;;
2362;SDS011;64265;51.664;7.626;2023-05-07T04:09:33;1.10;;;0.90;;
2362;SDS011;64265;51.664;7.626;2023-05-07T04:12:00;1.00;;;0.90;;
2362;SDS011;64265;51.664;7.626;2023-05-07T04:14:28;1.17;;;1.00;;
2362;SDS011;64265;51.664;7.626;2023-05-07T04:16:57;1.20;;;1.05;;
2362;SDS011;64265;51.664;7.626;2023-05-07T04:19:23;1.10;;;0.90;;
2362;SDS011;64265;51.664;7.626;2023-05-07T04:21:50;1.15;;;0.90;;
2362;SDS011;64265;51.664;7.626;2023-05-07T04:24:17;1.10;;;1.00;;
2362;SDS011;64265;51.664;7.626;2023-05-07T04:26:43;1.10;;;0.90;;
2362;SDS011;64265;51.664;7.626;2023-05-07T04:29:10;1.30;;;1.10;;
2362;SDS011;64265;51.664;7.626;2023-05-07T04:31:38;1.20;;;1.10;;
2362;SDS011;64265;51.664;7.626;2023-05-07T04:34:05;1.10;;;0.93;;
2362;SDS011;64265;51.664;7.626;2023-05-07T04:36:32;1.30;;;0.90;;
2362;SDS011;64265;51.664;7.626;2023-05-07T04:38:59;1.23;;;1.13;;
2362;SDS011;64265;51.664;7.626;2023-05-07T04:41:25;1.20;;;1.10;;
2362;SDS011;64265;51.664;7.626;2023-05-07T04:43:52;1.20;;;1.00;;
2362;SDS011;64265;51.664;7.626;2023-05-07T04:46:19;1.63;;;1.13;;
2362;SDS011;64265;51.664;7.626;2023-05-07T04:48:47;1.40;;;1.10;;
2362;SDS011;64265;51.664;7.626;2023-05-07T04:51:14;1.38;;;1.08;;
2362;SDS011;64265;51.664;7.626;2023-05-07T04:53:40;1.10;;;1.00;;
2362;SDS011;64265;51.664;7.626;2023-05-07T04:56:08;1.25;;;1.15;;
2362;SDS011;64265;51.664;7.626;2023-05-07T04:58:35;1.13;;;1.02;;
2362;SDS011;64265;51.664;7.626;2023-05-07T05:01:01;1.20;;;1.10;;
2362;SDS011;64265;51.664;7.626;2023-05-07T05:03:28;1.38;;;1.10;;
2362;SDS011;64265;51.664;7.626;2023-05-07T05:05:57;1.17;;;1.00;;
2362;SDS011;64265;51.664;7.626;2023-05-07T05:08:24;1.10;;;1.00;;
2362;SDS011;64265;51.664;7.626;2023-05-07T05:10:51;1.10;;;0.90;;
2362;SDS011;64265;51.664;7.626;2023-05-07T05:13:18;1.30;;;1.00;;
2362;SDS011;64265;51.664;7.626;2023-05-07T05:15:45;1.20;;;0.95;;
2362;SDS011;64265;51.664;7.626;2023-05-07T05:18:12;1.10;;;0.90;;
2362;SDS011;64265;51.664;7.626;2023-05-07T05:20:38;1.27;;;1.00;;
2362;SDS011;64265;51.664;7.626;2023-05-07T05:23:07;1.52;;;0.93;;
2362;SDS011;64265;51.664;7.626;2023-05-07T05:25:34;1.15;;;0.90;;
2362;SDS011;64265;51.664;7.626;2023-05-07T05:28:02;1.00;;;0.90;;
2362;SDS011;64265;51.664;7.626;2023-05-07T05:30:29;1.00;;;0.73;;
2362;SDS011;64265;51.664;7.626;2023-05-07T05:32:55;1.02;;;0.90;;
2362;SDS011;64265;51.664;7.626;2023-05-07T05:35:22;1.13;;;1.02;;
2362;SDS011;64265;51.664;7.626;2023-05-07T05:37:49;1.10;;;1.00;;
2362;SDS011;64265;51.664;7.626;2023-05-07T05:40:17;1.10;;;0.90;;
2362;SDS011;64265;51.664;7.626;2023-05-07T05:42:43;1.30;;;1.10;;
2362;SDS011;64265;51.664;7.626;2023-05-07T05:45:10;1.50;;;1.25;;
2362;SDS011;64265;51.664;7.626;2023-05-07T05:47:37;1.08;;;0.98;;
2362;SDS011;64265;51.664;7.626;2023-05-07T05:50:04;0.90;;;0.70;;
2362;SDS011;64265;51.664;7.626;2023-05-07T05:52:32;1.30;;;1.15;;
2362;SDS011;64265;51.664;7.626;2023-05-07T05:54:59;1.30;;;1.00;;
2362;SDS011;64265;51.664;7.626;2023-05-07T05:57:27;0.90;;;0.70;;
2362;SDS011;64265;51.664;7.626;2023-05-07T05:59:53;1.00;;;0.80;;
2362;SDS011;64265;51.664;7.626;2023-05-07T06:02:20;1.10;;;0.80;;
2362;SDS011;64265;51.664;7.626;2023-05-07T06:04:47;1.00;;;0.90;;
2362;SDS011;64265;51.664;7.626;2023-05-07T06:07:14;1.10;;;0.90;;
2362;SDS011;64265;51.664;7.626;2023-05-07T06:09:40;1.00;;;0.80;;
2362;SDS011;64265;51.664;7.626;2023-05-07T06:12:07;0.90;;;0.77;;
2362;SDS011;64265;51.664;7.626;2023-05-07T06:14:35;1.02;;;0.80;;
2362;SDS011;64265;51.664;7.626;2023-05-07T06:17:01;0.90;;;0.77;;
2362;SDS011;64265;51.664;7.626;2023-05-07T06:19:28;1.00;;;0.90;;
2362;SDS011;64265;51.664;7.626;2023-05-07T06:21:55;1.38;;;0.95;;
2362;SDS011;64265;51.664;7.626;2023-05-07T06:24:22;1.00;;;0.80;;
2362;SDS011;64265;51.664;7.626;2023-05-07T06:26:50;1.58;;;0.80;;
2362;SDS011;64265;51.664;7.626;2023-05-07T06:29:16;1.10;;;0.90;;
2362;SDS011;64265;51.664;7.626;2023-05-07T06:31:44;1.10;;;0.90;;
2362;SDS011;64265;51.664;7.626;2023-05-07T06:34:11;0.90;;;0.77;;
2362;SDS011;64265;51.664;7.626;2023-05-07T06:36:39;1.00;;;0.90;;
2362;SDS011;64265;51.664;7.626;2023-05-07T06:39:06;0.80;;;0.70;;
2362;SDS011;64265;51.664;7.626;2023-05-07T06:41:32;0.90;;;0.80;;
2362;SDS011;64265;51.664;7.626;2023-05-07T06:44:00;1.48;;;0.73;;
2362;SDS011;64265;51.664;7.626;2023-05-07T06:46:27;0.90;;;0.80;;
2362;SDS011;64265;51.664;7.626;2023-05-07T06:48:55;1.10;;;0.85;;
2362;SDS011;64265;51.664;7.626;2023-05-07T06:51:22;1.10;;;0.90;;
2362;SDS011;64265;51.664;7.626;2023-05-07T06:53:48;1.03;;;0.87;;
2362;SDS011;64265;51.664;7.626;2023-05-07T06:56:15;1.10;;;0.80;;
2362;SDS011;64265;51.664;7.626;2023-05-07T06:58:42;1.10;;;0.90;;
2362;SDS011;64265;51.664;7.626;2023-05-07T07:01:08;1.00;;;0.80;;
2362;SDS011;64265;51.664;7.626;2023-05-07T07:03:35;1.07;;;0.90;;
2362;SDS011;64265;51.664;7.626;2023-05-07T07:06:03;2.30;;;1.27;;
2362;SDS011;64265;51.664;7.626;2023-05-07T07:08:30;1.17;;;1.00;;
2362;SDS011;64265;51.664;7.626;2023-05-07T07:10:57;2.28;;;1.40;;
2362;SDS011;64265;51.664;7.626;2023-05-07T07:13:23;1.52;;;1.30;;
2362;SDS011;64265;51.664;7.626;2023-05-07T07:15:51;1.30;;;0.80;;
2362;SDS011;64265;51.664;7.626;2023-05-07T07:18:18;1.23;;;1.10;;
2362;SDS011;64265;51.664;7.626;2023-05-07T07:20:45;1.40;;;1.27;;
2362;SDS011;64265;51.664;7.626;2023-05-07T07:23:13;1.33;;;1.23;;
2362;SDS011;64265;51.664;7.626;2023-05-07T07:25:39;1.85;;;1.35;;
2362;SDS011;64265;51.664;7.626;2023-05-07T07:28:06;2.08;;;1.20;;
2362;SDS011;64265;51.664;7.626;2023-05-07T07:30:33;1.30;;;1.20;;
2362;SDS011;64265;51.664;7.626;2023-05-07T07:33:00;1.80;;;1.50;;
2362;SDS011;64265;51.664;7.626;2023-05-07T07:35:28;2.30;;;1.70;;
2362;SDS011;64265;51.664;7.626;2023-05-07T07:37:55;6.38;;;1.65;;
2362;SDS011;64265;51.664;7.626;2023-05-07T07:40:23;1.50;;;1.40;;
2362;SDS011;64265;51.664;7.626;2023-05-07T07:42:50;1.53;;;1.43;;
2362;SDS011;64265;51.664;7.626;2023-05-07T07:45:17;2.17;;;1.98;;
2362;SDS011;64265;51.664;7.626;2023-05-07T07:47:43;2.63;;;1.27;;
2362;SDS011;64265;51.664;7.626;2023-05-07T07:50:10;2.30;;;1.40;;
2362;SDS011;64265;51.664;7.626;2023-05-07T07:52:38;2.53;;;2.00;;
2362;SDS011;64265;51.664;7.626;2023-05-07T07:55:05;2.30;;;1.60;;
2362;SDS011;64265;51.664;7.626;2023-05-07T07:57:34;1.80;;;1.33;;
2362;SDS011;64265;51.664;7.626;2023-05-07T08:00:00;1.63;;;1.53;;
2362;SDS011;64265;51.664;7.626;2023-05-07T08:02:27;1.77;;;1.57;;
2362;SDS011;64265;51.664;7.626;2023-05-07T08:04:54;1.40;;;1.30;;
2362;SDS011;64265;51.664;7.626;2023-05-07T08:07:20;1.50;;;1.40;;
2362;SDS011;64265;51.664;7.626;2023-05-07T08:09:48;1.60;;;1.50;;
2362;SDS011;64265;51.664;7.626;2023-05-07T08:12:14;3.70;;;3.10;;
2362;SDS011;64265;51.664;7.626;2023-05-07T08:14:42;5.83;;;5.23;;
2362;SDS011;64265;51.664;7.626;2023-05-07T08:17:09;7.77;;;5.53;;
2362;SDS011;64265;51.664;7.626;2023-05-07T08:19:36;6.63;;;4.87;;
2362;SDS011;64265;51.664;7.626;2023-05-07T08:22:03;3.83;;;3.50;;
2362;SDS011;64265;51.664;7.626;2023-05-07T08:24:30;3.43;;;3.10;;
2362;SDS011;64265;51.664;7.626;2023-05-07T08:26:57;3.03;;;2.50;;
2362;SDS011;64265;51.664;7.626;2023-05-07T08:29:23;2.60;;;2.40;;
2362;SDS011;64265;51.664;7.626;2023-05-07T08:31:51;2.73;;;2.37;;
2362;SDS011;64265;51.664;7.626;2023-05-07T08:34:19;2.70;;;2.08;;
2362;SDS011;64265;51.664;7.626;2023-05-07T08:36:45;2.03;;;1.90;;
2362;SDS011;64265;51.664;7.626;2023-05-07T08:39:13;2.47;;;2.27;;
2362;SDS011;64265;51.664;7.626;2023-05-07T08:41:41;3.17;;;2.00;;
2362;SDS011;64265;51.664;7.626;2023-05-07T08:44:11;2.17;;;2.00;;
2362;SDS011;64265;51.664;7.626;2023-05-07T08:46:38;2.40;;;2.20;;
2362;SDS011;64265;51.664;7.626;2023-05-07T08:49:08;2.03;;;1.77;;
2362;SDS011;64265;51.664;7.626;2023-05-07T08:51:35;3.70;;;2.13;;
2362;SDS011;64265;51.664;7.626;2023-05-07T08:54:02;2.50;;;2.10;;
2362;SDS011;64265;51.664;7.626;2023-05-07T08:56:29;2.90;;;2.30;;
2362;SDS011;64265;51.664;7.626;2023-05-07T08:58:56;2.20;;;2.00;;
2362;SDS011;64265;51.664;7.626;2023-05-07T09:01:23;2.17;;;2.07;;
2362;SDS011;64265;51.664;7.626;2023-05-07T09:03:50;3.50;;;2.20;;
2362;SDS011;64265;51.664;7.626;2023-05-07T09:06:20;2.90;;;2.70;;
2362;SDS011;64265;51.664;7.626;2023-05-07T09:08:50;1.93;;;1.60;;
2362;SDS011;64265;51.664;7.626;2023-05-07T09:11:19;2.00;;;1.90;;
2362;SDS011;64265;51.664;7.626;2023-05-07T09:13:47;2.37;;;2.17;;
2362;SDS011;64265;51.664;7.626;2023-05-07T09:16:14;5.20;;;2.22;;
2362;SDS011;64265;51.664;7.626;2023-05-07T09:18:41;3.20;;;2.80;;
2362;SDS011;64265;51.664;7.626;2023-05-07T09:21:09;4.00;;;2.63;;
2362;SDS011;64265;51.664;7.626;2023-05-07T09:23:38;3.97;;;2.50;;
2362;SDS011;64265;51.664;7.626;2023-05-07T09:26:06;5.10;;;2.90;;
2362;SDS011;64265;51.664;7.626;2023-05-07T09:28:37;3.23;;;2.93;;
2362;SDS011;64265;51.664;7.626;2023-05-07T09:31:04;3.60;;;3.23;;
2362;SDS011;64265;51.664;7.626;2023-05-07T09:33:31;2.93;;;2.70;;
2362;SDS011;64265;51.664;7.626;2023-05-07T09:35:58;4.37;;;3.47;;
2362;SDS011;64265;51.664;7.626;2023-05-07T09:38:28;3.17;;;2.53;;
2362;SDS011;64265;51.664;7.626;2023-05-07T09:41:02;3.50;;;2.80;;
2362;SDS011;64265;51.664;7.626;2023-05-07T09:43:33;2.60;;;2.40;;
2362;SDS011;64265;51.664;7.626;2023-05-07T09:46:02;4.63;;;2.80;;
2362;SDS011;64265;51.664;7.626;2023-05-07T09:48:31;5.13;;;2.40;;
2362;SDS011;64265;51.664;7.626;2023-05-07T09:51:02;3.87;;;3.20;;
2362;SDS011;64265;51.664;7.626;2023-05-07T09:53:33;7.57;;;2.33;;
2362;SDS011;64265;51.664;7.626;2023-05-07T09:56:00;9.52;;;2.65;;
2362;SDS011;64265;51.664;7.626;2023-05-07T09:58:29;2.50;;;2.30;;
2362;SDS011;64265;51.664;7.626;2023-05-07T10:00:57;4.47;;;2.77;;
2362;SDS011;64265;51.664;7.626;2023-05-07T10:03:24;4.70;;;3.10;;
2362;SDS011;64265;51.664;7.626;2023-05-07T10:05:54;2.93;;;2.20;;
2362;SDS011;64265;51.664;7.626;2023-05-07T10:08:22;2.90;;;2.37;;
2362;SDS011;64265;51.664;7.626;2023-05-07T10:10:49;2.70;;;2.50;;
2362;SDS011;64265;51.664;7.626;2023-05-07T10:13:17;2.57;;;2.37;;
2362;SDS011;64265;51.664;7.626;2023-05-07T10:15:45;5.10;;;2.63;;
2362;SDS011;64265;51.664;7.626;2023-05-07T10:18:13;3.63;;;2.70;;
2362;SDS011;64265;51.664;7.626;2023-05-07T10:20:41;2.47;;;2.27;;
2362;SDS011;64265;51.664;7.626;2023-05-07T10:23:12;4.90;;;2.70;;
2362;SDS011;64265;51.664;7.626;2023-05-07T10:25:44;3.50;;;2.53;;
2362;SDS011;64265;51.664;7.626;2023-05-07T10:28:11;3.00;;;2.00;;
2362;SDS011;64265;51.664;7.626;2023-05-07T10:30:46;2.40;;;2.20;;
2362;SDS011;64265;51.664;7.626;2023-05-07T10:33:22;2.33;;;2.10;;
2362;SDS011;64265;51.664;7.626;2023-05-07T10:35:51;2.67;;;1.80;;
2362;SDS011;64265;51.664;7.626;2023-05-07T10:38:23;2.60;;;1.93;;
2362;SDS011;64265;51.664;7.626;2023-05-07T10:40:51;6.23;;;2.23;;
2362;SDS011;64265;51.664;7.626;2023-05-07T10:43:18;2.40;;;2.20;;
2362;SDS011;64265;51.664;7.626;2023-05-07T10:45:50;2.40;;;2.20;;
2362;SDS011;64265;51.664;7.626;2023-05-07T10:48:40;2.20;;;2.00;;
2362;SDS011;64265;51.664;7.626;2023-05-07T10:51:37;4.60;;;2.63;;
2362;SDS011;64265;51.664;7.626;2023-05-07T10:54:20;4.57;;;3.10;;
2362;SDS011;64265;51.664;7.626;2023-05-07T10:56:48;9.23;;;4.00;;
2362;SDS011;64265;51.664;7.626;2023-05-07T10:59:33;5.30;;;3.60;;
2362;SDS011;64265;51.664;7.626;2023-05-07T11:02:05;3.73;;;3.10;;
2362;SDS011;64265;51.664;7.626;2023-05-07T11:04:35;4.93;;;2.50;;
2362;SDS011;64265;51.664;7.626;2023-05-07T11:10:00;3.80;;;3.33;;
2362;SDS011;64265;51.664;7.626;2023-05-07T11:12:49;5.73;;;3.07;;
2362;SDS011;64265;51.664;7.626;2023-05-07T11:18:17;6.17;;;2.50;;
2362;SDS011;64265;51.664;7.626;2023-05-07T11:20:46;6.47;;;4.03;;
2362;SDS011;64265;51.664;7.626;2023-05-07T11:26:25;4.17;;;2.30;;
2362;SDS011;64265;51.664;7.626;2023-05-07T11:28:54;5.43;;;3.03;;
2362;SDS011;64265;51.664;7.626;2023-05-07T11:31:22;3.23;;;2.93;;
2362;SDS011;64265;51.664;7.626;2023-05-07T11:33:51;3.50;;;2.83;;
2362;SDS011;64265;51.664;7.626;2023-05-07T11:36:20;6.43;;;5.20;;
2362;SDS011;64265;51.664;7.626;2023-05-07T11:38:48;4.17;;;3.40;;
2362;SDS011;64265;51.664;7.626;2023-05-07T11:41:15;5.37;;;3.00;;
2362;SDS011;64265;51.664;7.626;2023-05-07T11:43:57;11.60;;;3.73;;
2362;SDS011;64265;51.664;7.626;2023-05-07T11:46:24;6.07;;;2.83;;
2362;SDS011;64265;51.664;7.626;2023-05-07T11:48:52;4.70;;;3.10;;
2362;SDS011;64265;51.664;7.626;2023-05-07T11:51:20;3.53;;;3.03;;
2362;SDS011;64265;51.664;7.626;2023-05-07T11:53:48;4.37;;;3.17;;
2362;SDS011;64265;51.664;7.626;2023-05-07T11:56:17;2.40;;;2.20;;
2362;SDS011;64265;51.664;7.626;2023-05-07T11:58:44;5.13;;;3.57;;
2362;SDS011;64265;51.664;7.626;2023-05-07T12:01:12;4.80;;;3.10;;
2362;SDS011;64265;51.664;7.626;2023-05-07T12:03:40;3.73;;;3.17;;
2362;SDS011;64265;51.664;7.626;2023-05-07T12:06:09;3.90;;;3.00;;
2362;SDS011;64265;51.664;7.626;2023-05-07T12:08:38;3.30;;;3.00;;
2362;SDS011;64265;51.664;7.626;2023-05-07T12:11:09;4.57;;;3.20;;
2362;SDS011;64265;51.664;7.626;2023-05-07T12:13:38;6.13;;;3.43;;
2362;SDS011;64265;51.664;7.626;2023-05-07T12:16:05;5.83;;;3.33;;
2362;SDS011;64265;51.664;7.626;2023-05-07T12:18:33;5.10;;;3.60;;
2362;SDS011;64265;51.664;7.626;2023-05-07T12:21:01;4.53;;;3.50;;
2362;SDS011;64265;51.664;7.626;2023-05-07T12:23:30;7.70;;;3.50;;
2362;SDS011;64265;51.664;7.626;2023-05-07T12:25:58;6.20;;;3.90;;
2362;SDS011;64265;51.664;7.626;2023-05-07T12:28:25;4.17;;;3.70;;
2362;SDS011;64265;51.664;7.626;2023-05-07T12:30:52;4.10;;;3.80;;
2362;SDS011;64265;51.664;7.626;2023-05-07T12:33:25;3.80;;;3.50;;
2362;SDS011;64265;51.664;7.626;2023-05-07T12:35:53;3.83;;;3.50;;
2362;SDS011;64265;51.664;7.626;2023-05-07T12:38:21;5.27;;;3.93;;
2362;SDS011;64265;51.664;7.626;2023-05-07T12:40:49;4.53;;;4.13;;
2362;SDS011;64265;51.664;7.626;2023-05-07T12:43:18;4.33;;;3.53;;
2362;SDS011;64265;51.664;7.626;2023-05-07T12:45:46;3.60;;;3.30;;
2362;SDS011;64265;51.664;7.626;2023-05-07T12:48:15;4.10;;;3.63;;
2362;SDS011;64265;51.664;7.626;2023-05-07T12:50:42;4.90;;;3.33;;
2362;SDS011;64265;51.664;7.626;2023-05-07T12:53:09;4.70;;;2.90;;
2362;SDS011;64265;51.664;7.626;2023-05-07T12:55:40;5.07;;;3.60;;
2362;SDS011;64265;51.664;7.626;2023-05-07T12:58:08;6.17;;;3.83;;
2362;SDS011;64265;51.664;7.626;2023-05-07T13:00:43;3.77;;;3.47;;
2362;SDS011;64265;51.664;7.626;2023-05-07T13:03:11;4.80;;;3.57;;
2362;SDS011;64265;51.664;7.626;2023-05-07T13:05:37;7.10;;;2.77;;
2362;SDS011;64265;51.664;7.626;2023-05-07T13:08:04;3.90;;;3.60;;
2362;SDS011;64265;51.664;7.626;2023-05-07T13:10:31;4.87;;;3.97;;
2362;SDS011;64265;51.664;7.626;2023-05-07T13:12:59;5.70;;;3.77;;
2362;SDS011;64265;51.664;7.626;2023-05-07T13:15:25;3.60;;;3.30;;
2362;SDS011;64265;51.664;7.626;2023-05-07T13:17:53;3.60;;;3.00;;
2362;SDS011;64265;51.664;7.626;2023-05-07T13:20:20;4.30;;;3.80;;
2362;SDS011;64265;51.664;7.626;2023-05-07T13:22:47;5.10;;;3.43;;
2362;SDS011;64265;51.664;7.626;2023-05-07T13:25:14;3.33;;;3.03;;
2362;SDS011;64265;51.664;7.626;2023-05-07T13:27:40;3.70;;;3.40;;
2362;SDS011;64265;51.664;7.626;2023-05-07T13:30:07;2.50;;;2.30;;
2362;SDS011;64265;51.664;7.626;2023-05-07T13:32:34;2.97;;;2.60;;
2362;SDS011;64265;51.664;7.626;2023-05-07T13:35:02;4.97;;;3.23;;
2362;SDS011;64265;51.664;7.626;2023-05-07T13:37:29;4.60;;;3.23;;
2362;SDS011;64265;51.664;7.626;2023-05-07T13:39:56;3.03;;;2.80;;
2362;SDS011;64265;51.664;7.626;2023-05-07T13:42:23;3.90;;;3.10;;
2362;SDS011;64265;51.664;7.626;2023-05-07T13:44:49;4.73;;;3.23;;
2362;SDS011;64265;51.664;7.626;2023-05-07T13:47:16;2.60;;;2.40;;
2362;SDS011;64265;51.664;7.626;2023-05-07T13:49:43;3.47;;;3.17;;
2362;SDS011;64265;51.664;7.626;2023-05-07T13:52:11;3.17;;;2.87;;
2362;SDS011;64265;51.664;7.626;2023-05-07T13:54:37;3.63;;;2.73;;
2362;SDS011;64265;51.664;7.626;2023-05-07T13:57:04;2.83;;;2.63;;
2362;SDS011;64265;51.664;7.626;2023-05-07T13:59:31;3.57;;;2.80;;
2362;SDS011;64265;51.664;7.626;2023-05-07T14:01:57;3.07;;;2.87;;
2362;SDS011;64265;51.664;7.626;2023-05-07T14:04:24;3.33;;;2.77;;
2362;SDS011;64265;51.664;7.626;2023-05-07T14:06:51;3.80;;;2.83;;
2362;SDS011;64265;51.664;7.626;2023-05-07T14:09:19;3.27;;;2.90;;
2362;SDS011;64265;51.664;7.626;2023-05-07T14:11:46;2.20;;;2.00;;
2362;SDS011;64265;51.664;7.626;2023-05-07T14:14:16;2.97;;;2.67;;
2362;SDS011;64265;51.664;7.626;2023-05-07T14:16:42;2.83;;;2.50;;
2362;SDS011;64265;51.664;7.626;2023-05-07T14:19:09;2.93;;;2.57;;
2362;SDS011;64265;51.664;7.626;2023-05-07T14:21:36;2.63;;;2.43;;
2362;SDS011;64265;51.664;7.626;2023-05-07T14:24:03;3.30;;;2.93;;
2362;SDS011;64265;51.664;7.626;2023-05-07T14:26:31;2.53;;;2.33;;
2362;SDS011;64265;51.664;7.626;2023-05-07T14:28:58;3.00;;;2.40;;
2362;SDS011;64265;51.664;7.626;2023-05-07T14:31:25;2.77;;;2.43;;
2362;SDS011;64265;51.664;7.626;2023-05-07T14:33:52;3.40;;;2.50;;
2362;SDS011;64265;51.664;7.626;2023-05-07T14:36:18;2.60;;;2.40;;
2362;SDS011;64265;51.664;7.626;2023-05-07T14:38:47;3.27;;;2.83;;
2362;SDS011;64265;51.664;7.626;2023-05-07T14:41:14;2.60;;;2.40;;
2362;SDS011;64265;51.664;7.626;2023-05-07T14:43:42;5.10;;;3.00;;
2362;SDS011;64265;51.664;7.626;2023-05-07T14:46:14;3.47;;;3.03;;
2362;SDS011;64265;51.664;7.626;2023-05-07T14:48:41;2.50;;;2.30;;
2362;SDS011;64265;51.664;7.626;2023-05-07T14:51:09;2.70;;;2.50;;
2362;SDS011;64265;51.664;7.626;2023-05-07T14:53:36;2.60;;;2.40;;
2362;SDS011;64265;51.664;7.626;2023-05-07T14:56:02;2.23;;;2.03;;
2362;SDS011;64265;51.664;7.626;2023-05-07T14:58:30;2.30;;;2.00;;
2362;SDS011;64265;51.664;7.626;2023-05-07T15:00:58;2.80;;;2.60;;
2362;SDS011;64265;51.664;7.626;2023-05-07T15:03:25;2.77;;;2.47;;
2362;SDS011;64265;51.664;7.626;2023-05-07T15:05:51;4.77;;;2.80;;
2362;SDS011;64265;51.664;7.626;2023-05-07T15:13:29;3.77;;;3.47;;
2362;SDS011;64265;51.664;7.626;2023-05-07T15:15:56;3.50;;;2.83;;
2362;SDS011;64265;51.664;7.626;2023-05-07T15:18:24;3.27;;;3.03;;